Tupungato, Argentina
Current Conditions -  °F | °C
As of 10:00 PM on Monday 22 Dec 2014 (Local Time) from SAME Reporting Station
Clear Clear  
Wind Chill: 18°   Ceiling: Unl
Heat Index: 18°   Visibility: 6mi
Dew Point: -1°   Wind: 2mph
Humidity: 28%   Direction: 270°W
Pressure: 29.91"   Gusts: NA
Location:  33.37°S, 69.13°W
Report Text: SAME 230100Z 27002KT CAVOK 18/M01 Q1013
Loading
Personal Weather Stations






























Interactive Weather Map New forecast layout! Learn more

10-Day Weather Forecast

Advertisements
Track Severe Weather on mobile